AIZ416 UGSB-LLBG
Flight info
| Callsign | AIZ416 |
|---|---|
| Flight time | 2h 6m |
| Altitude | 35000 |
| Route | IZERO L21 TBN UW706 SIV UT284 EVKIT UB545 VESAR DCT EMEDA DCT TUZIB DCT AZERE L189 ZUKKO |
| Aircraft | A21N/M-SDE2E3FGHIRWXY/LB1 |
Departure
| Time | 2026-05-07 16:47 |
|---|---|
| Airport | Alexander Kartveli Batumi International Airport (UGSB) |
Arrival
| Time | 2026-05-07 18:53 |
|---|---|
| Airport | Ben Gurion International Airport (LLBG) |
| Time | Latitude | Longitude | Altitude | Speed | Heading |
|---|---|---|---|---|---|
| 2026-05-07 16:31 | 41.60592 | 41.61062 | 20 ft | 0 kts | 79° |
| 2026-05-07 16:40 | 41.60589 | 41.61043 | 18 ft | 4 kts | 79° |
| 2026-05-07 16:40 | 41.60585 | 41.61008 | 18 ft | 4 kts | 87° |
| 2026-05-07 16:40 | 41.60587 | 41.60974 | 18 ft | 4 kts | 119° |
| 2026-05-07 16:40 | 41.60592 | 41.60962 | 23 ft | 1 kts | 136° |
| 2026-05-07 16:43 | 41.60592 | 41.60963 | 23 ft | 0 kts | 136° |
| 2026-05-07 16:43 | 41.60537 | 41.61034 | 18 ft | 16 kts | 136° |
| 2026-05-07 16:43 | 41.60469 | 41.61092 | 18 ft | 12 kts | 184° |
| 2026-05-07 16:43 | 41.60374 | 41.61059 | 19 ft | 15 kts | 196° |
| 2026-05-07 16:44 | 41.60285 | 41.61046 | 19 ft | 14 kts | 171° |
| 2026-05-07 16:44 | 41.60236 | 41.61079 | 18 ft | 7 kts | 126° |
| 2026-05-07 16:44 | 41.60232 | 41.61094 | 18 ft | 3 kts | 96° |
| 2026-05-07 16:45 | 41.60232 | 41.61095 | 18 ft | 2 kts | 92° |
| 2026-05-07 16:45 | 41.60240 | 41.61106 | 18 ft | 4 kts | 41° |
| 2026-05-07 16:46 | 41.60257 | 41.61111 | 18 ft | 2 kts | 346° |
| 2026-05-07 16:46 | 41.60316 | 41.61025 | 22 ft | 41 kts | 310° |
| 2026-05-07 16:46 | 41.60701 | 41.60430 | 21 ft | 132 kts | 310° |
| 2026-05-07 16:46 | 41.61380 | 41.59375 | 699 ft | 152 kts | 311° |
| 2026-05-07 16:47 | 41.62037 | 41.58249 | 1822 ft | 156 kts | 306° |
| 2026-05-07 16:47 | 41.62649 | 41.57049 | 2918 ft | 155 kts | 301° |
| 2026-05-07 16:47 | 41.63270 | 41.55751 | 3796 ft | 183 kts | 297° |
| 2026-05-07 16:47 | 41.63782 | 41.54026 | 4390 ft | 214 kts | 285° |
| 2026-05-07 16:48 | 41.64057 | 41.52426 | 5026 ft | 0 kts | 279° |
| 2026-05-07 16:48 | 41.64224 | 41.50636 | 5739 ft | 241 kts | 274° |
| 2026-05-07 16:48 | 41.64336 | 41.48309 | 6694 ft | 259 kts | 272° |
| 2026-05-07 16:48 | 41.64398 | 41.45857 | 7843 ft | 268 kts | 272° |
| 2026-05-07 16:49 | 41.64449 | 41.43343 | 9107 ft | 274 kts | 272° |
| 2026-05-07 16:49 | 41.64509 | 41.40766 | 10348 ft | 280 kts | 273° |
| 2026-05-07 16:49 | 41.64587 | 41.38068 | 11133 ft | 304 kts | 274° |
| 2026-05-07 16:49 | 41.64688 | 41.35098 | 11681 ft | 333 kts | 274° |
| 2026-05-07 16:50 | 41.64806 | 41.31938 | 12556 ft | 347 kts | 274° |
| 2026-05-07 16:50 | 41.64930 | 41.28679 | 13650 ft | 355 kts | 274° |
| 2026-05-07 16:50 | 41.65057 | 41.25347 | 14699 ft | 362 kts | 274° |
| 2026-05-07 16:50 | 41.65183 | 41.21994 | 15684 ft | 369 kts | 274° |
| 2026-05-07 16:51 | 41.65312 | 41.18531 | 16688 ft | 376 kts | 274° |
| 2026-05-07 16:51 | 41.65441 | 41.15017 | 17667 ft | 383 kts | 274° |
| 2026-05-07 16:51 | 41.65526 | 41.11417 | 18601 ft | 389 kts | 270° |
| 2026-05-07 16:51 | 41.65325 | 41.07777 | 19467 ft | 395 kts | 265° |
| 2026-05-07 16:52 | 41.64928 | 41.04118 | 20330 ft | 400 kts | 262° |
| 2026-05-07 16:52 | 41.64430 | 41.00441 | 21211 ft | 404 kts | 261° |
| 2026-05-07 16:52 | 41.63894 | 40.96734 | 22070 ft | 408 kts | 261° |
| 2026-05-07 16:52 | 41.63351 | 40.92985 | 22895 ft | 413 kts | 261° |
| 2026-05-07 16:53 | 41.62818 | 40.89198 | 23681 ft | 417 kts | 261° |
| 2026-05-07 16:53 | 41.62294 | 40.85368 | 24316 ft | 421 kts | 261° |
| 2026-05-07 16:53 | 41.61776 | 40.81484 | 24886 ft | 427 kts | 262° |
| 2026-05-07 16:53 | 41.61260 | 40.77563 | 25445 ft | 432 kts | 262° |
| 2026-05-07 16:54 | 41.60740 | 40.73589 | 26003 ft | 436 kts | 262° |
| 2026-05-07 16:54 | 41.60213 | 40.69573 | 26564 ft | 440 kts | 262° |
| 2026-05-07 16:54 | 41.59677 | 40.65529 | 27095 ft | 445 kts | 261° |
| 2026-05-07 16:54 | 41.58680 | 40.61592 | 27593 ft | 453 kts | 243° |
| 2026-05-07 16:55 | 41.56871 | 40.58119 | 28105 ft | 459 kts | 230° |
| 2026-05-07 16:55 | 41.54646 | 40.55043 | 28591 ft | 463 kts | 224° |
| 2026-05-07 16:55 | 41.52300 | 40.52157 | 29063 ft | 467 kts | 223° |
| 2026-05-07 16:55 | 41.49893 | 40.49227 | 29529 ft | 471 kts | 223° |
| 2026-05-07 16:56 | 41.47504 | 40.46217 | 30027 ft | 473 kts | 225° |
| 2026-05-07 16:56 | 41.45161 | 40.43136 | 30587 ft | 472 kts | 226° |
| 2026-05-07 16:56 | 41.40627 | 40.36893 | 31812 ft | 466 kts | 227° |
| 2026-05-07 16:57 | 41.38407 | 40.33769 | 32364 ft | 464 kts | 227° |
| 2026-05-07 16:57 | 41.36195 | 40.30643 | 32899 ft | 462 kts | 228° |
| 2026-05-07 16:57 | 41.33995 | 40.27536 | 33411 ft | 461 kts | 228° |
| 2026-05-07 16:57 | 41.32086 | 40.24846 | 33925 ft | 459 kts | 228° |
| 2026-05-07 16:58 | 41.29895 | 40.21768 | 34365 ft | 458 kts | 228° |
| 2026-05-07 16:58 | 41.27719 | 40.18719 | 34730 ft | 457 kts | 228° |
| 2026-05-07 16:58 | 41.25530 | 40.15658 | 35065 ft | 458 kts | 227° |
| 2026-05-07 16:58 | 41.23329 | 40.12585 | 35186 ft | 459 kts | 227° |
| 2026-05-07 16:59 | 41.18901 | 40.06416 | 35202 ft | 466 kts | 227° |
| 2026-05-07 16:59 | 41.14402 | 40.00158 | 35204 ft | 470 kts | 227° |
| 2026-05-07 17:00 | 41.09874 | 39.93876 | 35208 ft | 471 kts | 227° |
| 2026-05-07 17:00 | 41.05346 | 39.87607 | 35209 ft | 471 kts | 227° |
| 2026-05-07 17:01 | 41.00809 | 39.81337 | 35210 ft | 471 kts | 228° |
| 2026-05-07 17:01 | 40.97065 | 39.74283 | 35214 ft | 468 kts | 243° |
| 2026-05-07 17:02 | 40.94145 | 39.66585 | 35210 ft | 467 kts | 246° |
| 2026-05-07 17:02 | 40.91323 | 39.58902 | 35211 ft | 467 kts | 245° |
| 2026-05-07 17:03 | 40.88385 | 39.51241 | 35210 ft | 468 kts | 244° |
| 2026-05-07 17:03 | 40.85373 | 39.43605 | 35204 ft | 468 kts | 244° |
| 2026-05-07 17:04 | 40.82344 | 39.35998 | 35200 ft | 468 kts | 244° |
| 2026-05-07 17:04 | 40.79314 | 39.28398 | 35195 ft | 468 kts | 244° |
| 2026-05-07 17:05 | 40.76280 | 39.20797 | 35195 ft | 468 kts | 244° |
| 2026-05-07 17:05 | 40.73240 | 39.13198 | 35188 ft | 469 kts | 245° |
| 2026-05-07 17:06 | 40.70190 | 39.05594 | 35189 ft | 470 kts | 245° |
| 2026-05-07 17:06 | 40.67155 | 38.98041 | 35188 ft | 470 kts | 244° |
| 2026-05-07 17:07 | 40.64090 | 38.90437 | 35188 ft | 470 kts | 244° |
| 2026-05-07 17:07 | 40.61014 | 38.82850 | 35188 ft | 469 kts | 244° |
| 2026-05-07 17:08 | 40.57929 | 38.75274 | 35189 ft | 469 kts | 244° |
| 2026-05-07 17:08 | 40.55361 | 38.68978 | 35190 ft | 469 kts | 244° |
| 2026-05-07 17:09 | 40.52271 | 38.61420 | 35198 ft | 469 kts | 244° |
| 2026-05-07 17:09 | 40.48629 | 38.52666 | 35181 ft | 469 kts | 244° |
| 2026-05-07 17:10 | 40.45941 | 38.46405 | 35194 ft | 469 kts | 243° |
| 2026-05-07 17:10 | 40.42724 | 38.38957 | 35180 ft | 469 kts | 244° |
| 2026-05-07 17:11 | 40.39509 | 38.31513 | 35186 ft | 469 kts | 243° |
| 2026-05-07 17:11 | 40.36346 | 38.24016 | 35183 ft | 468 kts | 245° |
| 2026-05-07 17:12 | 40.33334 | 38.16505 | 35186 ft | 468 kts | 245° |
| 2026-05-07 17:12 | 40.30258 | 38.08988 | 35186 ft | 468 kts | 244° |
| 2026-05-07 17:13 | 40.27107 | 38.01530 | 35177 ft | 468 kts | 244° |
| 2026-05-07 17:13 | 40.25622 | 37.97760 | 39893 ft | 466 kts | 244° |
| 2026-05-07 17:13 | 40.24085 | 37.94046 | 39659 ft | 462 kts | 243° |
| 2026-05-07 17:14 | 40.22506 | 37.90396 | 39432 ft | 460 kts | 242° |
| 2026-05-07 17:14 | 40.20905 | 37.86745 | 39201 ft | 459 kts | 242° |
| 2026-05-07 17:14 | 40.19320 | 37.83123 | 38981 ft | 459 kts | 242° |
| 2026-05-07 17:14 | 40.17739 | 37.79483 | 38754 ft | 459 kts | 243° |
| 2026-05-07 17:15 | 40.16171 | 37.75846 | 38471 ft | 460 kts | 243° |
| 2026-05-07 17:15 | 40.14601 | 37.72186 | 38208 ft | 460 kts | 243° |
| 2026-05-07 17:15 | 40.13059 | 37.68584 | 37951 ft | 461 kts | 243° |
| 2026-05-07 17:15 | 40.11496 | 37.64931 | 37681 ft | 461 kts | 243° |
| 2026-05-07 17:16 | 40.09929 | 37.61270 | 37415 ft | 462 kts | 243° |
| 2026-05-07 17:16 | 40.08359 | 37.57608 | 37158 ft | 462 kts | 243° |
| 2026-05-07 17:16 | 40.06791 | 37.53942 | 36899 ft | 463 kts | 243° |
| 2026-05-07 17:16 | 40.05222 | 37.50267 | 36645 ft | 463 kts | 244° |
| 2026-05-07 17:17 | 40.03652 | 37.46593 | 36385 ft | 464 kts | 244° |
| 2026-05-07 17:17 | 40.02083 | 37.42922 | 36161 ft | 464 kts | 244° |
| 2026-05-07 17:17 | 40.00507 | 37.39241 | 35904 ft | 465 kts | 244° |
| 2026-05-07 17:17 | 39.98921 | 37.35542 | 35651 ft | 464 kts | 244° |
| 2026-05-07 17:18 | 39.97343 | 37.31868 | 35417 ft | 464 kts | 244° |
| 2026-05-07 17:18 | 39.95767 | 37.28202 | 35216 ft | 464 kts | 244° |
| 2026-05-07 17:18 | 39.92619 | 37.20893 | 35194 ft | 465 kts | 244° |
| 2026-05-07 17:19 | 39.89441 | 37.13534 | 35200 ft | 465 kts | 245° |
| 2026-05-07 17:19 | 39.86266 | 37.06205 | 35227 ft | 464 kts | 245° |
| 2026-05-07 17:20 | 39.83097 | 36.98899 | 35239 ft | 464 kts | 245° |
| 2026-05-07 17:20 | 39.79920 | 36.91592 | 35238 ft | 464 kts | 244° |
| 2026-05-07 17:21 | 39.78012 | 36.88157 | 35235 ft | 472 kts | 231° |
| 2026-05-07 17:21 | 39.75598 | 36.85327 | 35239 ft | 477 kts | 223° |
| 2026-05-07 17:21 | 39.70122 | 36.80372 | 35227 ft | 481 kts | 218° |
| 2026-05-07 17:22 | 39.64547 | 36.75568 | 35198 ft | 480 kts | 219° |
| 2026-05-07 17:22 | 39.59075 | 36.70613 | 35198 ft | 479 kts | 220° |
| 2026-05-07 17:23 | 39.53673 | 36.65566 | 35182 ft | 479 kts | 220° |
| 2026-05-07 17:23 | 39.48278 | 36.60491 | 35175 ft | 478 kts | 220° |
| 2026-05-07 17:24 | 39.42933 | 36.55477 | 35181 ft | 477 kts | 220° |
| 2026-05-07 17:24 | 39.37540 | 36.50437 | 35181 ft | 477 kts | 220° |
| 2026-05-07 17:25 | 39.32157 | 36.45420 | 35181 ft | 476 kts | 220° |
| 2026-05-07 17:25 | 39.26783 | 36.40424 | 35185 ft | 476 kts | 220° |
| 2026-05-07 17:26 | 39.21395 | 36.35422 | 35171 ft | 476 kts | 220° |
| 2026-05-07 17:26 | 39.16062 | 36.30480 | 35189 ft | 475 kts | 220° |
| 2026-05-07 17:27 | 39.10690 | 36.25514 | 35198 ft | 475 kts | 220° |
| 2026-05-07 17:27 | 39.05318 | 36.20556 | 35190 ft | 475 kts | 220° |
| 2026-05-07 17:28 | 38.99950 | 36.15611 | 35198 ft | 474 kts | 220° |
| 2026-05-07 17:28 | 38.94581 | 36.10675 | 35199 ft | 474 kts | 220° |
| 2026-05-07 17:29 | 38.89213 | 36.05749 | 35193 ft | 474 kts | 220° |
| 2026-05-07 17:29 | 38.83844 | 36.00832 | 35196 ft | 474 kts | 220° |
| 2026-05-07 17:30 | 38.78472 | 35.95921 | 35200 ft | 474 kts | 220° |
| 2026-05-07 17:30 | 38.73104 | 35.91022 | 35201 ft | 474 kts | 220° |
| 2026-05-07 17:31 | 38.67742 | 35.86139 | 35198 ft | 474 kts | 220° |
| 2026-05-07 17:31 | 38.62393 | 35.81276 | 35204 ft | 474 kts | 220° |
| 2026-05-07 17:32 | 38.57010 | 35.76392 | 35200 ft | 473 kts | 220° |
| 2026-05-07 17:32 | 38.51632 | 35.71521 | 35195 ft | 474 kts | 220° |
| 2026-05-07 17:33 | 38.46246 | 35.66652 | 35195 ft | 474 kts | 220° |
| 2026-05-07 17:33 | 38.40860 | 35.61793 | 35195 ft | 474 kts | 220° |
| 2026-05-07 17:34 | 38.35508 | 35.56973 | 35186 ft | 474 kts | 220° |
| 2026-05-07 17:34 | 38.30124 | 35.52135 | 35195 ft | 473 kts | 220° |
| 2026-05-07 17:35 | 38.24738 | 35.47313 | 35191 ft | 474 kts | 220° |
| 2026-05-07 17:35 | 38.19332 | 35.42483 | 35185 ft | 474 kts | 220° |
| 2026-05-07 17:36 | 38.13937 | 35.37673 | 35184 ft | 473 kts | 220° |
| 2026-05-07 17:36 | 38.08533 | 35.32864 | 35186 ft | 473 kts | 220° |
| 2026-05-07 17:37 | 38.03144 | 35.28076 | 35182 ft | 473 kts | 220° |
| 2026-05-07 17:37 | 37.97751 | 35.23293 | 35181 ft | 473 kts | 220° |
| 2026-05-07 17:38 | 37.92384 | 35.18541 | 35178 ft | 473 kts | 220° |
| 2026-05-07 17:38 | 37.86984 | 35.13769 | 35184 ft | 473 kts | 220° |
| 2026-05-07 17:39 | 37.81585 | 35.09007 | 35182 ft | 473 kts | 220° |
| 2026-05-07 17:39 | 37.76185 | 35.04252 | 35171 ft | 473 kts | 220° |
| 2026-05-07 17:40 | 37.70787 | 34.99507 | 35171 ft | 472 kts | 220° |
| 2026-05-07 17:40 | 37.65430 | 34.94808 | 35173 ft | 472 kts | 220° |
| 2026-05-07 17:41 | 37.60034 | 34.90083 | 35182 ft | 472 kts | 220° |
| 2026-05-07 17:41 | 37.54645 | 34.85371 | 35180 ft | 471 kts | 220° |
| 2026-05-07 17:42 | 37.49256 | 34.80669 | 35185 ft | 471 kts | 220° |
| 2026-05-07 17:42 | 37.43861 | 34.75970 | 35173 ft | 470 kts | 220° |
| 2026-05-07 17:43 | 37.38469 | 34.71287 | 35187 ft | 471 kts | 220° |
| 2026-05-07 17:43 | 37.33083 | 34.66617 | 35183 ft | 470 kts | 220° |
| 2026-05-07 17:44 | 37.27722 | 34.61973 | 35188 ft | 470 kts | 220° |
| 2026-05-07 17:44 | 37.22331 | 34.57306 | 35172 ft | 470 kts | 220° |
| 2026-05-07 17:45 | 37.16951 | 34.52655 | 35190 ft | 469 kts | 220° |
| 2026-05-07 17:45 | 37.11572 | 34.48007 | 35179 ft | 470 kts | 220° |
| 2026-05-07 17:46 | 37.06202 | 34.43393 | 35170 ft | 471 kts | 220° |
| 2026-05-07 17:46 | 37.00801 | 34.38760 | 35173 ft | 471 kts | 220° |
| 2026-05-07 17:47 | 36.95381 | 34.34115 | 35159 ft | 471 kts | 220° |
| 2026-05-07 17:47 | 36.89972 | 34.29485 | 35165 ft | 471 kts | 220° |
| 2026-05-07 17:48 | 36.84559 | 34.24861 | 35137 ft | 471 kts | 220° |
| 2026-05-07 17:48 | 36.79135 | 34.20234 | 35164 ft | 473 kts | 220° |
| 2026-05-07 17:49 | 36.73681 | 34.15587 | 35151 ft | 475 kts | 220° |
| 2026-05-07 17:49 | 36.68221 | 34.10950 | 35154 ft | 475 kts | 220° |
| 2026-05-07 17:50 | 36.62787 | 34.06342 | 35138 ft | 475 kts | 220° |
| 2026-05-07 17:50 | 36.57315 | 34.01711 | 35129 ft | 475 kts | 220° |
| 2026-05-07 17:51 | 36.51845 | 33.97090 | 35122 ft | 476 kts | 220° |
| 2026-05-07 17:51 | 36.46364 | 33.92461 | 35120 ft | 477 kts | 220° |
| 2026-05-07 17:52 | 36.40865 | 33.87830 | 35134 ft | 478 kts | 220° |
| 2026-05-07 17:52 | 36.35354 | 33.83202 | 35113 ft | 478 kts | 220° |
| 2026-05-07 17:53 | 36.29843 | 33.78579 | 35129 ft | 478 kts | 220° |
| 2026-05-07 17:53 | 36.23928 | 33.74730 | 35116 ft | 493 kts | 199° |
| 2026-05-07 17:54 | 36.20486 | 33.74217 | 35123 ft | 502 kts | 182° |
| 2026-05-07 17:54 | 36.17022 | 33.74827 | 35106 ft | 509 kts | 166° |
| 2026-05-07 17:54 | 36.13792 | 33.76503 | 35105 ft | 512 kts | 150° |
| 2026-05-07 17:54 | 36.10971 | 33.79166 | 35107 ft | 511 kts | 134° |
| 2026-05-07 17:55 | 36.08759 | 33.82604 | 35112 ft | 509 kts | 121° |
| 2026-05-07 17:55 | 36.06819 | 33.86257 | 35108 ft | 510 kts | 122° |
| 2026-05-07 17:55 | 36.02149 | 33.92889 | 35107 ft | 513 kts | 137° |
| 2026-05-07 17:56 | 35.97408 | 33.97377 | 35102 ft | 513 kts | 147° |
| 2026-05-07 17:56 | 35.91314 | 34.01824 | 35100 ft | 509 kts | 160° |
| 2026-05-07 17:57 | 35.87907 | 34.02919 | 35094 ft | 503 kts | 176° |
| 2026-05-07 17:57 | 35.84447 | 34.02895 | 35105 ft | 494 kts | 192° |
| 2026-05-07 17:57 | 35.77837 | 34.00852 | 35097 ft | 489 kts | 201° |
| 2026-05-07 17:58 | 35.71198 | 33.98826 | 35109 ft | 493 kts | 196° |
| 2026-05-07 17:58 | 35.64411 | 33.97456 | 35105 ft | 495 kts | 192° |
| 2026-05-07 17:59 | 35.57566 | 33.96419 | 35105 ft | 495 kts | 191° |
| 2026-05-07 17:59 | 35.50716 | 33.95445 | 35100 ft | 495 kts | 191° |
| 2026-05-07 18:00 | 35.43883 | 33.94453 | 35108 ft | 498 kts | 191° |
| 2026-05-07 18:00 | 35.37000 | 33.93432 | 35114 ft | 498 kts | 191° |
| 2026-05-07 18:01 | 35.30103 | 33.92403 | 35099 ft | 498 kts | 191° |
| 2026-05-07 18:01 | 35.23223 | 33.91378 | 35110 ft | 498 kts | 191° |
| 2026-05-07 18:02 | 35.12891 | 33.89846 | 35111 ft | 498 kts | 191° |
| 2026-05-07 18:03 | 35.06009 | 33.88827 | 35104 ft | 497 kts | 190° |
| 2026-05-07 18:03 | 34.99179 | 33.87818 | 35103 ft | 497 kts | 190° |
| 2026-05-07 18:04 | 34.92315 | 33.86806 | 35104 ft | 496 kts | 190° |
| 2026-05-07 18:04 | 34.85448 | 33.85795 | 35109 ft | 496 kts | 190° |
| 2026-05-07 18:05 | 34.78602 | 33.84789 | 35105 ft | 495 kts | 190° |
| 2026-05-07 18:05 | 34.71753 | 33.83783 | 35102 ft | 495 kts | 190° |
| 2026-05-07 18:06 | 34.64904 | 33.82780 | 35105 ft | 495 kts | 190° |
| 2026-05-07 18:06 | 34.58072 | 33.81781 | 35105 ft | 495 kts | 190° |
| 2026-05-07 18:07 | 34.51236 | 33.80783 | 35105 ft | 495 kts | 190° |
| 2026-05-07 18:07 | 34.44355 | 33.80366 | 35104 ft | 497 kts | 181° |
| 2026-05-07 18:08 | 34.37480 | 33.80914 | 35105 ft | 498 kts | 178° |
| 2026-05-07 18:08 | 34.30574 | 33.81616 | 35106 ft | 498 kts | 178° |
| 2026-05-07 18:09 | 34.23661 | 33.82233 | 35102 ft | 497 kts | 178° |
| 2026-05-07 18:09 | 34.16770 | 33.82781 | 35105 ft | 496 kts | 179° |
| 2026-05-07 18:10 | 34.09883 | 33.83308 | 35102 ft | 496 kts | 179° |
| 2026-05-07 18:10 | 34.02981 | 33.83835 | 35092 ft | 496 kts | 179° |
| 2026-05-07 18:11 | 33.96140 | 33.84364 | 35102 ft | 496 kts | 178° |
| 2026-05-07 18:11 | 33.89235 | 33.84901 | 35100 ft | 496 kts | 178° |
| 2026-05-07 18:12 | 33.82347 | 33.85436 | 35102 ft | 496 kts | 179° |
| 2026-05-07 18:12 | 33.75462 | 33.85969 | 35103 ft | 495 kts | 178° |
| 2026-05-07 18:13 | 33.68576 | 33.86501 | 35105 ft | 495 kts | 178° |
| 2026-05-07 18:13 | 33.61697 | 33.87032 | 35103 ft | 495 kts | 178° |
| 2026-05-07 18:14 | 33.54860 | 33.87558 | 35101 ft | 495 kts | 178° |
| 2026-05-07 18:14 | 33.47978 | 33.88088 | 35105 ft | 495 kts | 178° |
| 2026-05-07 18:15 | 33.41087 | 33.88617 | 35102 ft | 496 kts | 178° |
| 2026-05-07 18:15 | 33.34197 | 33.89146 | 35100 ft | 496 kts | 178° |
| 2026-05-07 18:16 | 33.27300 | 33.89674 | 35102 ft | 496 kts | 178° |
| 2026-05-07 18:16 | 33.23904 | 33.89934 | 34948 ft | 491 kts | 178° |
| 2026-05-07 18:16 | 33.20523 | 33.90194 | 34152 ft | 482 kts | 178° |
| 2026-05-07 18:16 | 33.17186 | 33.90444 | 32450 ft | 479 kts | 178° |
| 2026-05-07 18:17 | 33.13843 | 33.90690 | 30308 ft | 486 kts | 178° |
| 2026-05-07 18:17 | 33.10438 | 33.90939 | 28213 ft | 488 kts | 179° |
| 2026-05-07 18:17 | 33.07092 | 33.91187 | 26837 ft | 473 kts | 179° |
| 2026-05-07 18:17 | 33.03859 | 33.91428 | 25518 ft | 459 kts | 179° |
| 2026-05-07 18:18 | 33.00714 | 33.91661 | 24197 ft | 448 kts | 179° |
| 2026-05-07 18:18 | 32.97637 | 33.91888 | 22752 ft | 438 kts | 179° |
| 2026-05-07 18:18 | 32.94632 | 33.92108 | 21258 ft | 428 kts | 179° |
| 2026-05-07 18:18 | 32.91723 | 33.92322 | 19830 ft | 420 kts | 179° |
| 2026-05-07 18:19 | 32.88830 | 33.92534 | 18464 ft | 411 kts | 179° |
| 2026-05-07 18:19 | 32.86003 | 33.92741 | 16975 ft | 403 kts | 179° |
| 2026-05-07 18:19 | 32.83241 | 33.92944 | 15627 ft | 392 kts | 179° |
| 2026-05-07 18:19 | 32.80554 | 33.93141 | 14347 ft | 383 kts | 179° |
| 2026-05-07 18:20 | 32.77902 | 33.93334 | 13435 ft | 379 kts | 179° |
| 2026-05-07 18:20 | 32.75294 | 33.93524 | 12631 ft | 372 kts | 179° |
| 2026-05-07 18:20 | 32.72730 | 33.93711 | 11816 ft | 366 kts | 179° |
| 2026-05-07 18:20 | 32.70206 | 33.93896 | 11019 ft | 361 kts | 179° |
| 2026-05-07 18:21 | 32.67710 | 33.94077 | 10207 ft | 356 kts | 179° |
| 2026-05-07 18:21 | 32.65259 | 33.94255 | 9360 ft | 351 kts | 178° |
| 2026-05-07 18:21 | 32.62859 | 33.94428 | 8427 ft | 348 kts | 177° |
| 2026-05-07 18:21 | 32.60446 | 33.94604 | 7630 ft | 348 kts | 177° |
| 2026-05-07 18:22 | 32.58038 | 33.94777 | 7183 ft | 347 kts | 177° |
| 2026-05-07 18:22 | 32.56394 | 33.94836 | 7056 ft | 349 kts | 178° |
| 2026-05-07 18:22 | 32.53358 | 33.95925 | 7017 ft | 348 kts | 145° |
| 2026-05-07 18:22 | 32.51696 | 33.97957 | 7016 ft | 343 kts | 122° |
| 2026-05-07 18:23 | 32.50455 | 34.00359 | 7018 ft | 340 kts | 121° |
| 2026-05-07 18:23 | 32.49139 | 34.02705 | 7012 ft | 342 kts | 124° |
| 2026-05-07 18:23 | 32.47727 | 34.04895 | 7005 ft | 322 kts | 127° |
| 2026-05-07 18:23 | 32.46349 | 34.06845 | 7004 ft | 297 kts | 129° |
| 2026-05-07 18:24 | 32.45028 | 34.08628 | 7008 ft | 289 kts | 130° |
| 2026-05-07 18:24 | 32.43678 | 34.10393 | 7013 ft | 289 kts | 131° |
| 2026-05-07 18:24 | 32.42531 | 34.12315 | 7003 ft | 285 kts | 109° |
| 2026-05-07 18:24 | 32.42049 | 34.14579 | 7008 ft | 284 kts | 99° |
| 2026-05-07 18:25 | 32.41711 | 34.16881 | 7004 ft | 285 kts | 97° |
| 2026-05-07 18:25 | 32.41367 | 34.19191 | 7003 ft | 285 kts | 98° |
| 2026-05-07 18:25 | 32.40997 | 34.21494 | 7002 ft | 284 kts | 98° |
| 2026-05-07 18:25 | 32.40611 | 34.23789 | 7004 ft | 285 kts | 100° |
| 2026-05-07 18:26 | 32.40211 | 34.26089 | 7005 ft | 286 kts | 100° |
| 2026-05-07 18:26 | 32.39803 | 34.28393 | 7003 ft | 286 kts | 101° |
| 2026-05-07 18:26 | 32.39392 | 34.30693 | 7004 ft | 285 kts | 101° |
| 2026-05-07 18:26 | 32.38978 | 34.33000 | 6997 ft | 286 kts | 101° |
| 2026-05-07 18:27 | 32.38568 | 34.35272 | 7001 ft | 287 kts | 101° |
| 2026-05-07 18:27 | 32.38152 | 34.37574 | 6999 ft | 286 kts | 101° |
| 2026-05-07 18:27 | 32.37736 | 34.39873 | 6999 ft | 285 kts | 101° |
| 2026-05-07 18:27 | 32.37454 | 34.41425 | 7001 ft | 285 kts | 101° |
| 2026-05-07 18:28 | 32.36984 | 34.44018 | 6993 ft | 286 kts | 101° |
| 2026-05-07 18:34 | 32.36806 | 34.44996 | 6995 ft | 286 kts | 101° |
| 2026-05-07 18:34 | 32.36389 | 34.47295 | 6993 ft | 286 kts | 101° |
| 2026-05-07 18:35 | 32.35971 | 34.49597 | 6994 ft | 286 kts | 101° |
| 2026-05-07 18:35 | 32.35536 | 34.51892 | 6992 ft | 287 kts | 106° |
| 2026-05-07 18:35 | 32.34542 | 34.53912 | 6989 ft | 286 kts | 132° |
| 2026-05-07 18:35 | 32.33137 | 34.55587 | 6988 ft | 286 kts | 136° |
| 2026-05-07 18:36 | 32.31695 | 34.57213 | 6989 ft | 287 kts | 136° |
| 2026-05-07 18:36 | 32.30268 | 34.58860 | 6987 ft | 286 kts | 135° |
| 2026-05-07 18:36 | 32.28862 | 34.60522 | 6986 ft | 286 kts | 135° |
| 2026-05-07 18:36 | 32.27462 | 34.62203 | 6988 ft | 287 kts | 134° |
| 2026-05-07 18:37 | 32.26085 | 34.63872 | 6984 ft | 287 kts | 134° |
| 2026-05-07 18:37 | 32.24686 | 34.65575 | 6986 ft | 289 kts | 134° |
| 2026-05-07 18:37 | 32.23292 | 34.67277 | 6979 ft | 288 kts | 134° |
| 2026-05-07 18:37 | 32.21908 | 34.68972 | 6600 ft | 283 kts | 134° |
| 2026-05-07 18:38 | 32.20541 | 34.70642 | 6155 ft | 283 kts | 134° |
| 2026-05-07 18:38 | 32.19172 | 34.72316 | 6001 ft | 283 kts | 134° |
| 2026-05-07 18:38 | 32.17807 | 34.73987 | 5973 ft | 282 kts | 134° |
| 2026-05-07 18:38 | 32.16451 | 34.75644 | 5603 ft | 278 kts | 134° |
| 2026-05-07 18:39 | 32.14973 | 34.77094 | 5008 ft | 277 kts | 148° |
| 2026-05-07 18:39 | 32.13184 | 34.77948 | 4347 ft | 280 kts | 170° |
| 2026-05-07 18:39 | 32.11310 | 34.77850 | 4042 ft | 268 kts | 198° |
| 2026-05-07 18:39 | 32.09756 | 34.76847 | 3975 ft | 245 kts | 224° |
| 2026-05-07 18:40 | 32.08777 | 34.75313 | 3978 ft | 228 kts | 248° |
| 2026-05-07 18:40 | 32.08399 | 34.73530 | 3980 ft | 223 kts | 273° |
| 2026-05-07 18:40 | 32.08832 | 34.71818 | 4023 ft | 218 kts | 300° |
| 2026-05-07 18:40 | 32.09611 | 34.70282 | 3995 ft | 218 kts | 305° |
| 2026-05-07 18:41 | 32.10440 | 34.68777 | 3986 ft | 219 kts | 305° |
| 2026-05-07 18:41 | 32.11254 | 34.67284 | 3985 ft | 220 kts | 304° |
| 2026-05-07 18:41 | 32.12076 | 34.65748 | 3995 ft | 220 kts | 304° |
| 2026-05-07 18:41 | 32.12887 | 34.64213 | 3984 ft | 220 kts | 304° |
| 2026-05-07 18:42 | 32.13692 | 34.62678 | 3993 ft | 220 kts | 304° |
| 2026-05-07 18:42 | 32.14495 | 34.61139 | 3985 ft | 220 kts | 304° |
| 2026-05-07 18:42 | 32.15050 | 34.60138 | 3981 ft | 219 kts | 311° |
| 2026-05-07 18:42 | 32.16273 | 34.59209 | 3986 ft | 208 kts | 351° |
| 2026-05-07 18:43 | 32.18027 | 34.59880 | 3988 ft | 211 kts | 44° |
| 2026-05-07 18:43 | 32.18570 | 34.61482 | 3997 ft | 220 kts | 86° |
| 2026-05-07 18:43 | 32.18060 | 34.63187 | 3984 ft | 229 kts | 128° |
| 2026-05-07 18:43 | 32.16712 | 34.64168 | 3998 ft | 233 kts | 162° |
| 2026-05-07 18:44 | 32.15672 | 34.64493 | 3985 ft | 233 kts | 165° |
| 2026-05-07 18:44 | 32.14079 | 34.64985 | 3978 ft | 235 kts | 167° |
| 2026-05-07 18:44 | 32.12456 | 34.64879 | 3986 ft | 236 kts | 199° |
| 2026-05-07 18:44 | 32.11128 | 34.63812 | 3985 ft | 232 kts | 232° |
| 2026-05-07 18:45 | 32.10486 | 34.62112 | 3984 ft | 227 kts | 267° |
| 2026-05-07 18:45 | 32.10667 | 34.60333 | 3992 ft | 220 kts | 294° |
| 2026-05-07 18:45 | 32.11284 | 34.58684 | 3978 ft | 221 kts | 300° |
| 2026-05-07 18:45 | 32.12024 | 34.57089 | 3973 ft | 222 kts | 309° |
| 2026-05-07 18:46 | 32.13193 | 34.56010 | 3993 ft | 211 kts | 342° |
| 2026-05-07 18:46 | 32.14624 | 34.55914 | 3992 ft | 209 kts | 16° |
| 2026-05-07 18:46 | 32.15843 | 34.56818 | 3985 ft | 212 kts | 47° |
| 2026-05-07 18:46 | 32.16422 | 34.58416 | 3991 ft | 218 kts | 81° |
| 2026-05-07 18:47 | 32.16155 | 34.60186 | 3990 ft | 225 kts | 112° |
| 2026-05-07 18:47 | 32.15365 | 34.61813 | 3971 ft | 230 kts | 120° |
| 2026-05-07 18:47 | 32.14443 | 34.63354 | 3656 ft | 229 kts | 124° |
| 2026-05-07 18:47 | 32.13492 | 34.64854 | 3305 ft | 228 kts | 122° |
| 2026-05-07 18:48 | 32.12549 | 34.66337 | 3044 ft | 225 kts | 123° |
| 2026-05-07 18:48 | 32.11598 | 34.67822 | 2989 ft | 228 kts | 123° |
| 2026-05-07 18:48 | 32.10647 | 34.69295 | 2992 ft | 228 kts | 122° |
| 2026-05-07 18:48 | 32.09724 | 34.70742 | 2980 ft | 209 kts | 120° |
| 2026-05-07 18:49 | 32.08961 | 34.72119 | 2996 ft | 196 kts | 117° |
| 2026-05-07 18:49 | 32.08251 | 34.73485 | 2994 ft | 195 kts | 117° |
| 2026-05-07 18:49 | 32.07552 | 34.74851 | 2910 ft | 190 kts | 117° |
| 2026-05-07 18:49 | 32.06889 | 34.76103 | 2738 ft | 171 kts | 119° |
| 2026-05-07 18:50 | 32.06243 | 34.77233 | 2415 ft | 164 kts | 118° |
| 2026-05-07 18:50 | 32.05633 | 34.78362 | 2000 ft | 162 kts | 116° |
| 2026-05-07 18:50 | 32.05060 | 34.79489 | 1552 ft | 159 kts | 113° |
| 2026-05-07 18:50 | 32.04551 | 34.80587 | 1268 ft | 151 kts | 112° |
| 2026-05-07 18:51 | 32.04043 | 34.81631 | 1003 ft | 143 kts | 117° |
| 2026-05-07 18:51 | 32.03529 | 34.82588 | 800 ft | 135 kts | 119° |
| 2026-05-07 18:51 | 32.03017 | 34.83518 | 806 ft | 141 kts | 117° |
| 2026-05-07 18:51 | 32.02523 | 34.84514 | 575 ft | 137 kts | 118° |
| 2026-05-07 18:52 | 32.02055 | 34.85457 | 418 ft | 133 kts | 119° |
| 2026-05-07 18:52 | 32.01570 | 34.86378 | 218 ft | 130 kts | 120° |
| 2026-05-07 18:52 | 32.01118 | 34.87260 | 124 ft | 114 kts | 123° |
| 2026-05-07 18:52 | 32.00793 | 34.87889 | 120 ft | 72 kts | 121° |
| 2026-05-07 18:53 | 32.00569 | 34.88318 | 120 ft | 51 kts | 121° |
| 2026-05-07 18:53 | 32.00451 | 34.88521 | 123 ft | 25 kts | 134° |
| 2026-05-07 18:53 | 32.00348 | 34.88620 | 122 ft | 0 kts | 148° |
| 2026-05-07 18:53 | 32.00333 | 34.88631 | 126 ft | 4 kts | 150° |
| 2026-05-07 18:54 | 32.00284 | 34.88660 | 124 ft | 10 kts | 154° |
| 2026-05-07 18:54 | 32.00205 | 34.88696 | 120 ft | 14 kts | 161° |
| 2026-05-07 18:54 | 32.00121 | 34.88697 | 120 ft | 10 kts | 200° |
| 2026-05-07 18:54 | 32.00091 | 34.88659 | 120 ft | 4 kts | 268° |
| 2026-05-07 18:55 | 32.00110 | 34.88612 | 122 ft | 9 kts | 302° |
| 2026-05-07 18:55 | 32.00203 | 34.88435 | 121 ft | 45 kts | 301° |
| 2026-05-07 18:55 | 32.00370 | 34.88116 | 122 ft | 46 kts | 301° |
| 2026-05-07 18:55 | 32.00526 | 34.87816 | 118 ft | 30 kts | 301° |
| 2026-05-07 18:56 | 32.00629 | 34.87618 | 122 ft | 15 kts | 301° |
| 2026-05-07 18:56 | 32.00672 | 34.87516 | 122 ft | 10 kts | 274° |
| 2026-05-07 18:56 | 32.00670 | 34.87479 | 123 ft | 4 kts | 237° |
| 2026-05-07 18:56 | 32.00646 | 34.87451 | 122 ft | 6 kts | 221° |
| 2026-05-07 18:57 | 32.00638 | 34.87443 | 120 ft | 2 kts | 221° |
| 2026-05-07 18:57 | 32.00632 | 34.87436 | 121 ft | 0 kts | 221° |